Time;durP1;ratioP1;P1;durP2;ratioP2;P2;SDS_P1;SDS_P2;PMS_P1;PMS_P2;Temp;Humidity;BMP_temperature;BMP_pressure;BME280_temperature;BME280_humidity;BME280_pressure;Samples;Min_cycle;Max_cycle;Signal;HPM_P1;HPM_P2
2022/10/15 00:00:33;;;;;;;63.92;40.72;;;12.70;99.90;;;;;;4941034;28;20445;-64
2022/10/15 00:02:58;;;;;;;66.47;40.65;;;12.80;99.90;;;;;;4941818;28;20039;-64
2022/10/15 00:05:24;;;;;;;70.28;42.90;;;12.70;99.90;;;;;;4951493;28;20066;-64
2022/10/15 00:07:50;;;;;;;64.85;41.42;;;12.70;99.90;;;;;;4943047;28;20043;-64
2022/10/15 00:10:16;;;;;;;80.18;45.38;;;12.70;99.90;;;;;;4947066;28;20379;-64
2022/10/15 00:12:42;;;;;;;65.88;42.05;;;12.70;99.90;;;;;;4937431;28;20047;-63
2022/10/15 00:15:09;;;;;;;66.38;41.90;;;12.80;99.90;;;;;;4921844;28;20050;-64
2022/10/15 00:17:36;;;;;;;72.15;42.55;;;12.80;99.90;;;;;;4933078;28;20051;-63
2022/10/15 00:20:04;;;;;;;72.85;41.58;;;12.70;99.90;;;;;;4933630;28;20054;-64
2022/10/15 00:22:30;;;;;;;66.13;40.63;;;12.80;99.90;;;;;;4935266;28;20150;-63
2022/10/15 00:24:55;;;;;;;69.40;43.55;;;12.80;99.90;;;;;;4938256;28;20047;-64
2022/10/15 00:27:21;;;;;;;65.60;40.58;;;12.70;99.90;;;;;;4924594;28;20046;-64
2022/10/15 00:29:47;;;;;;;68.55;42.20;;;12.80;99.90;;;;;;4931683;28;20144;-64
2022/10/15 00:32:13;;;;;;;66.60;41.10;;;12.80;99.90;;;;;;4935144;28;20069;-64
2022/10/15 00:34:40;;;;;;;73.20;40.63;;;12.80;99.90;;;;;;4937379;28;20074;-64
2022/10/15 00:37:07;;;;;;;66.82;40.67;;;12.70;99.90;;;;;;4932979;28;20055;-64
2022/10/15 00:39:33;;;;;;;67.78;41.47;;;12.80;99.90;;;;;;4944996;28;20064;-63
2022/10/15 00:41:59;;;;;;;66.22;40.90;;;12.70;99.90;;;;;;4944012;28;20947;-64
2022/10/15 00:44:28;;;;;;;68.00;41.75;;;12.80;99.90;;;;;;4935513;28;20163;-64
2022/10/15 00:46:59;;;;;;;68.75;41.00;;;12.80;99.90;;;;;;4936310;28;20059;-64
2022/10/15 00:49:41;;;;;;;68.78;39.95;;;12.80;99.90;;;;;;4932327;28;20126;-64
2022/10/15 00:52:11;;;;;;;68.28;40.55;;;12.80;99.90;;;;;;4947520;28;20464;-64
2022/10/15 00:54:41;;;;;;;67.55;42.55;;;12.80;99.90;;;;;;4936450;28;20051;-64
2022/10/15 00:57:08;;;;;;;69.25;41.50;;;12.80;99.90;;;;;;4937484;28;20138;-63
2022/10/15 00:59:38;;;;;;;67.30;42.75;;;12.80;99.90;;;;;;4925663;28;20047;-63
2022/10/15 01:02:05;;;;;;;67.20;41.88;;;12.80;99.90;;;;;;4930144;28;20497;-64
2022/10/15 01:04:32;;;;;;;65.70;41.03;;;12.80;99.90;;;;;;4949898;28;20177;-63
2022/10/15 01:06:57;;;;;;;66.95;41.60;;;12.80;99.90;;;;;;4950326;28;20529;-64
2022/10/15 01:09:24;;;;;;;60.97;39.35;;;12.80;99.90;;;;;;4934043;28;20097;-64
2022/10/15 01:11:52;;;;;;;68.55;40.70;;;12.80;99.90;;;;;;4941655;28;20139;-64
2022/10/15 01:14:47;;;;;;;57.95;38.97;;;12.80;99.90;;;;;;4942853;28;20069;-64
2022/10/15 01:17:34;;;;;;;70.68;39.90;;;12.80;99.90;;;;;;4939787;28;20298;-64
2022/10/15 01:20:33;;;;;;;62.60;39.60;;;12.70;99.90;;;;;;4938675;28;20126;-64
2022/10/15 01:23:19;;;;;;;62.53;38.55;;;12.70;99.90;;;;;;4922535;28;20137;-64
2022/10/15 01:26:06;;;;;;;60.95;37.58;;;12.70;99.90;;;;;;4949289;28;20047;-64
2022/10/15 01:29:07;;;;;;;63.13;38.63;;;12.70;99.90;;;;;;4950908;28;20047;-64
2022/10/15 01:31:57;;;;;;;57.53;37.25;;;12.70;99.90;;;;;;4947843;28;20043;-64
2022/10/15 01:34:49;;;;;;;71.10;39.63;;;12.70;99.90;;;;;;4942928;28;20051;-64
2022/10/15 01:37:21;;;;;;;62.35;37.45;;;12.60;99.90;;;;;;4881532;28;20510;-64
2022/10/15 01:40:04;;;;;;;59.22;38.47;;;12.60;99.90;;;;;;4950695;28;20055;-64
2022/10/15 01:42:37;;;;;;;57.95;37.13;;;12.60;99.90;;;;;;4950028;28;20035;-64
2022/10/15 01:45:11;;;;;;;63.35;38.38;;;12.60;99.90;;;;;;4932674;28;20049;-64
2022/10/15 01:47:51;;;;;;;58.88;36.03;;;12.60;99.90;;;;;;4932251;28;20054;-64
2022/10/15 01:50:20;;;;;;;67.38;38.88;;;12.60;99.90;;;;;;4947538;28;20078;-64
2022/10/15 01:52:50;;;;;;;59.10;36.88;;;12.60;99.90;;;;;;4917375;28;20067;-64
2022/10/15 01:55:18;;;;;;;60.75;37.05;;;12.60;99.90;;;;;;4934780;28;20379;-64
2022/10/15 01:57:45;;;;;;;65.13;38.30;;;12.60;99.90;;;;;;4950852;28;20047;-64
2022/10/15 02:00:11;;;;;;;63.25;36.53;;;12.50;99.90;;;;;;4933437;28;20069;-64
2022/10/15 02:02:37;;;;;;;60.90;36.80;;;12.50;99.90;;;;;;4940156;28;20043;-64
2022/10/15 02:05:06;;;;;;;59.17;34.72;;;12.50;99.90;;;;;;4942958;28;20047;-64
2022/10/15 02:07:47;;;;;;;59.10;36.05;;;12.50;99.90;;;;;;4933960;28;20142;-64
2022/10/15 02:10:20;;;;;;;55.13;34.03;;;12.50;99.90;;;;;;4936364;28;20135;-63
2022/10/15 02:13:10;;;;;;;57.42;35.40;;;12.50;99.90;;;;;;4935757;28;20062;-64
2022/10/15 02:16:02;;;;;;;60.30;35.35;;;12.50;99.90;;;;;;4950795;28;20055;-64
2022/10/15 02:18:51;;;;;;;54.92;34.08;;;12.50;99.90;;;;;;4923816;28;20043;-64
2022/10/15 02:21:29;;;;;;;56.72;34.47;;;12.50;99.90;;;;;;4933213;28;20486;-64
2022/10/15 02:24:20;;;;;;;57.25;35.13;;;12.50;99.90;;;;;;4948260;28;20791;-64
2022/10/15 02:26:47;;;;;;;56.13;34.25;;;12.50;99.90;;;;;;4949610;28;20098;-64
2022/10/15 02:29:17;;;;;;;61.58;35.80;;;12.50;99.90;;;;;;4925498;28;20062;-64
2022/10/15 02:31:45;;;;;;;57.75;34.28;;;12.50;99.90;;;;;;4939141;28;20058;-64
2022/10/15 02:34:17;;;;;;;54.80;33.90;;;12.50;99.90;;;;;;4949617;28;20928;-64
2022/10/15 02:36:43;;;;;;;61.80;35.25;;;12.50;99.90;;;;;;4934647;28;20047;-64
2022/10/15 02:39:17;;;;;;;59.67;34.28;;;12.50;99.90;;;;;;4949097;28;20050;-64
2022/10/15 02:41:43;;;;;;;57.85;34.97;;;12.40;99.90;;;;;;4948287;28;20138;-64
2022/10/15 02:44:09;;;;;;;54.15;34.08;;;12.50;99.90;;;;;;4947538;28;20043;-64
2022/10/15 02:46:35;;;;;;;62.03;34.88;;;12.40;99.90;;;;;;4930212;28;20153;-64
2022/10/15 02:49:01;;;;;;;55.17;33.47;;;12.40;99.90;;;;;;4918392;28;20055;-64
2022/10/15 02:51:31;;;;;;;53.67;33.05;;;12.40;99.90;;;;;;4938766;28;20117;-64
2022/10/15 02:53:57;;;;;;;55.85;33.72;;;12.40;99.90;;;;;;4932737;28;20050;-64
2022/10/15 02:56:23;;;;;;;59.35;34.35;;;12.40;99.90;;;;;;4939536;28;20083;-64
2022/10/15 02:58:48;;;;;;;54.90;33.60;;;12.40;99.90;;;;;;4934886;28;20103;-64
2022/10/15 03:01:14;;;;;;;60.15;33.47;;;12.40;99.90;;;;;;4931503;28;20153;-64
2022/10/15 03:03:40;;;;;;;53.40;33.55;;;12.40;99.90;;;;;;4945413;28;20055;-64
2022/10/15 03:06:06;;;;;;;55.55;33.92;;;12.40;99.90;;;;;;4932775;28;20063;-64
2022/10/15 03:08:32;;;;;;;56.80;32.33;;;12.40;99.90;;;;;;4939083;28;20090;-64
2022/10/15 03:11:01;;;;;;;58.10;34.35;;;12.40;99.90;;;;;;4949332;28;20042;-64
2022/10/15 03:13:28;;;;;;;53.67;32.75;;;12.40;99.90;;;;;;4938599;28;20066;-64
2022/10/15 03:15:53;;;;;;;54.47;32.95;;;12.30;99.90;;;;;;4936730;28;20133;-63
2022/10/15 03:18:19;;;;;;;56.20;33.63;;;12.30;99.90;;;;;;4951382;28;20057;-64
2022/10/15 03:20:53;;;;;;;56.83;33.30;;;12.30;99.90;;;;;;4949232;28;20047;-64
2022/10/15 03:23:19;;;;;;;56.35;33.15;;;12.30;99.90;;;;;;4945959;28;20049;-64
2022/10/15 03:25:44;;;;;;;57.00;33.05;;;12.40;99.90;;;;;;4933122;28;20046;-63
2022/10/15 03:28:10;;;;;;;55.42;32.45;;;12.30;99.90;;;;;;4951474;28;20046;-64
2022/10/15 03:30:36;;;;;;;53.83;32.70;;;12.40;99.90;;;;;;4940734;28;20508;-63
2022/10/15 03:33:02;;;;;;;51.97;33.42;;;12.30;99.90;;;;;;4931827;28;20150;-64
2022/10/15 03:35:27;;;;;;;54.80;32.78;;;12.30;99.90;;;;;;4938659;28;20050;-64
2022/10/15 03:37:53;;;;;;;53.88;34.05;;;12.30;99.90;;;;;;4947249;28;20050;-63
2022/10/15 03:40:19;;;;;;;57.70;34.70;;;12.30;99.90;;;;;;4948925;28;20560;-63
2022/10/15 03:42:50;;;;;;;58.95;33.05;;;12.30;99.90;;;;;;4954093;28;20043;-64
2022/10/15 03:45:16;;;;;;;52.20;33.40;;;12.30;99.90;;;;;;4942731;28;20055;-64
2022/10/15 03:47:42;;;;;;;57.72;35.58;;;12.30;99.90;;;;;;4921085;28;20982;-64
2022/10/15 03:50:08;;;;;;;55.92;32.90;;;12.30;99.90;;;;;;4953785;28;20051;-63
2022/10/15 03:52:35;;;;;;;55.30;34.22;;;12.30;99.90;;;;;;4942941;28;20046;-63
2022/10/15 03:55:01;;;;;;;55.92;33.55;;;12.30;99.90;;;;;;4925742;28;20055;-64
2022/10/15 03:57:27;;;;;;;52.03;32.90;;;12.30;99.90;;;;;;4951488;28;20046;-63
2022/10/15 03:59:53;;;;;;;52.65;33.10;;;12.30;99.90;;;;;;4939047;28;20047;-63
2022/10/15 04:02:19;;;;;;;57.17;34.08;;;12.40;99.90;;;;;;4943753;28;20382;-63
2022/10/15 04:04:45;;;;;;;58.00;32.35;;;12.30;99.90;;;;;;4945743;28;20051;-63
2022/10/15 04:07:10;;;;;;;54.38;32.60;;;12.30;99.90;;;;;;4950887;28;20059;-63
2022/10/15 04:09:36;;;;;;;60.42;34.20;;;12.30;99.90;;;;;;4934304;28;20051;-64
2022/10/15 04:12:02;;;;;;;59.22;33.10;;;12.30;99.90;;;;;;4936955;28;20059;-64
2022/10/15 04:14:28;;;;;;;58.08;34.40;;;12.30;99.90;;;;;;4931317;28;20051;-64
2022/10/15 04:16:55;;;;;;;62.33;34.67;;;12.30;99.90;;;;;;4948490;28;20102;-63
2022/10/15 04:19:21;;;;;;;57.50;34.03;;;12.30;99.90;;;;;;4933532;28;20814;-63
2022/10/15 04:21:46;;;;;;;60.15;33.65;;;12.30;99.90;;;;;;4938927;29;20161;-64
2022/10/15 04:24:12;;;;;;;65.75;36.00;;;12.30;99.90;;;;;;4927798;28;20047;-64
2022/10/15 04:26:38;;;;;;;62.28;35.88;;;12.40;99.90;;;;;;4924154;29;20530;-64
2022/10/15 04:29:04;;;;;;;65.03;35.03;;;12.30;99.90;;;;;;4941771;28;20055;-64
2022/10/15 04:31:30;;;;;;;61.45;34.85;;;12.40;99.90;;;;;;4924820;29;20052;-64
2022/10/15 04:33:56;;;;;;;66.82;36.30;;;12.30;99.90;;;;;;4930689;28;20058;-63
2022/10/15 04:36:21;;;;;;;64.97;36.22;;;12.30;99.90;;;;;;4931771;28;20130;-63
2022/10/15 04:38:47;;;;;;;66.45;36.88;;;12.30;99.90;;;;;;4928031;28;20059;-64
2022/10/15 04:41:13;;;;;;;60.03;34.45;;;12.40;99.90;;;;;;4932383;29;20044;-64
2022/10/15 04:43:39;;;;;;;62.70;35.63;;;12.30;99.90;;;;;;4930241;28;20043;-64
2022/10/15 04:46:07;;;;;;;65.25;36.70;;;12.40;99.90;;;;;;4931707;28;20047;-63
2022/10/15 04:48:35;;;;;;;64.32;35.42;;;12.40;99.90;;;;;;4927302;28;20047;-63
2022/10/15 04:51:11;;;;;;;70.03;37.28;;;12.30;99.90;;;;;;4933277;28;20088;-63
2022/10/15 04:53:37;;;;;;;73.78;38.95;;;12.40;99.90;;;;;;4931768;28;20105;-63
2022/10/15 04:56:09;;;;;;;67.95;38.17;;;12.30;99.90;;;;;;4932019;28;20051;-64
2022/10/15 04:58:35;;;;;;;75.05;37.65;;;12.30;99.90;;;;;;4933175;28;20886;-63
2022/10/15 05:01:07;;;;;;;68.70;37.03;;;12.30;99.90;;;;;;4933208;28;20048;-63
2022/10/15 05:03:34;;;;;;;70.20;37.77;;;12.30;99.90;;;;;;4930938;28;20129;-64
2022/10/15 05:06:11;;;;;;;66.75;37.38;;;12.30;99.90;;;;;;4939222;28;20313;-63
2022/10/15 05:08:40;;;;;;;72.80;38.08;;;12.30;99.90;;;;;;4947873;28;20054;-63
2022/10/15 05:11:16;;;;;;;68.30;37.08;;;12.30;99.90;;;;;;4943031;28;20592;-63
2022/10/15 05:13:42;;;;;;;70.72;36.72;;;12.30;99.90;;;;;;4951768;28;20402;-63
2022/10/15 05:16:14;;;;;;;68.07;36.45;;;12.30;99.90;;;;;;4952430;28;20058;-64
2022/10/15 05:18:41;;;;;;;62.05;35.60;;;12.30;99.90;;;;;;4951355;28;20466;-64
2022/10/15 05:21:07;;;;;;;66.25;35.45;;;12.30;99.90;;;;;;4944774;28;20501;-64
2022/10/15 05:23:35;;;;;;;62.22;35.38;;;12.30;99.90;;;;;;4953339;28;20090;-64
2022/10/15 05:26:03;;;;;;;65.35;36.47;;;12.30;99.90;;;;;;4951575;28;20058;-63
2022/10/15 05:28:29;;;;;;;58.20;34.00;;;12.30;99.90;;;;;;4936797;28;20055;-63
2022/10/15 05:30:56;;;;;;;61.72;36.05;;;12.30;99.90;;;;;;4953250;28;20053;-63
2022/10/15 05:33:22;;;;;;;71.72;37.22;;;12.20;99.90;;;;;;4938264;28;20504;-64
2022/10/15 05:35:47;;;;;;;67.05;34.72;;;12.20;99.90;;;;;;4936338;28;20061;-64
2022/10/15 05:38:13;;;;;;;61.25;33.70;;;12.20;99.90;;;;;;4950846;28;20046;-63
2022/10/15 05:40:39;;;;;;;61.08;35.42;;;12.20;99.90;;;;;;4935301;28;20071;-64
2022/10/15 05:43:05;;;;;;;63.33;34.72;;;12.20;99.90;;;;;;4942575;28;20082;-64
2022/10/15 05:45:31;;;;;;;60.97;34.35;;;12.20;99.90;;;;;;4941866;28;20105;-64
2022/10/15 05:47:56;;;;;;;65.32;35.08;;;12.10;99.90;;;;;;4933067;28;20038;-64
2022/10/15 05:50:22;;;;;;;59.88;35.78;;;12.20;99.90;;;;;;4943225;28;20042;-64
2022/10/15 05:52:48;;;;;;;57.88;36.15;;;12.20;99.90;;;;;;4953377;28;20086;-64
2022/10/15 05:55:14;;;;;;;63.45;36.63;;;12.20;99.90;;;;;;4951803;28;20055;-64
2022/10/15 05:57:40;;;;;;;63.15;35.88;;;12.10;99.90;;;;;;4951726;28;20047;-64
2022/10/15 06:00:07;;;;;;;58.72;35.25;;;12.10;99.90;;;;;;4936590;28;20635;-64
2022/10/15 06:02:33;;;;;;;67.40;36.80;;;12.10;99.90;;;;;;4949919;28;20397;-64
2022/10/15 06:04:59;;;;;;;64.28;36.72;;;12.10;99.90;;;;;;4952916;28;20039;-64
2022/10/15 06:07:25;;;;;;;69.18;38.03;;;12.10;99.90;;;;;;4936256;28;20218;-64
2022/10/15 06:09:51;;;;;;;66.63;38.30;;;12.10;99.90;;;;;;4924856;28;20524;-64
2022/10/15 06:12:17;;;;;;;65.47;38.35;;;12.10;99.90;;;;;;4950953;28;20043;-64
2022/10/15 06:14:42;;;;;;;73.95;40.13;;;12.10;99.90;;;;;;4940821;28;20716;-64
2022/10/15 06:17:08;;;;;;;72.75;40.70;;;12.10;99.90;;;;;;4933224;28;20051;-63
2022/10/15 06:19:34;;;;;;;73.10;40.63;;;12.10;99.90;;;;;;4936951;28;20166;-64
2022/10/15 06:22:00;;;;;;;72.35;39.50;;;12.10;99.90;;;;;;4937061;28;20081;-64
2022/10/15 06:24:25;;;;;;;81.80;41.33;;;12.10;99.90;;;;;;4922438;28;20050;-64
2022/10/15 06:26:51;;;;;;;75.80;41.85;;;12.10;99.90;;;;;;4936675;28;20505;-64
2022/10/15 06:29:17;;;;;;;81.70;41.95;;;12.10;99.90;;;;;;4920876;28;20062;-64
2022/10/15 06:31:43;;;;;;;77.55;42.70;;;12.10;99.90;;;;;;4934059;28;20066;-64
2022/10/15 06:34:09;;;;;;;79.38;43.55;;;12.20;99.90;;;;;;4922588;28;20042;-64
2022/10/15 06:36:35;;;;;;;82.53;42.42;;;12.10;99.90;;;;;;4944773;28;20086;-64
2022/10/15 06:39:01;;;;;;;74.75;42.63;;;12.20;99.90;;;;;;4933119;28;20050;-64
2022/10/15 06:41:27;;;;;;;80.35;43.38;;;12.20;99.90;;;;;;4929635;28;20046;-64
2022/10/15 06:43:53;;;;;;;75.70;43.40;;;12.20;99.90;;;;;;4920457;28;20118;-64
2022/10/15 06:46:19;;;;;;;80.70;43.60;;;12.20;99.90;;;;;;4921892;28;20214;-64
2022/10/15 06:48:45;;;;;;;78.93;44.15;;;12.20;99.90;;;;;;4922702;28;20047;-64
2022/10/15 06:51:11;;;;;;;83.75;44.30;;;12.20;99.90;;;;;;4927617;28;20054;-64
2022/10/15 06:53:39;;;;;;;81.20;43.22;;;12.20;99.90;;;;;;4924003;28;20475;-64
2022/10/15 06:56:06;;;;;;;78.18;43.97;;;12.20;99.90;;;;;;4949205;28;20110;-64
2022/10/15 06:58:31;;;;;;;80.75;43.75;;;12.20;99.90;;;;;;4945873;28;20047;-64
2022/10/15 07:01:02;;;;;;;79.03;42.72;;;12.20;99.90;;;;;;4927635;28;20477;-64
2022/10/15 07:03:28;;;;;;;92.45;45.35;;;12.30;99.90;;;;;;4917836;28;20133;-64
2022/10/15 07:05:54;;;;;;;88.00;45.83;;;12.30;99.90;;;;;;4929935;28;20242;-64
2022/10/15 07:08:20;;;;;;;91.97;46.00;;;12.30;99.90;;;;;;4928103;28;20050;-64
2022/10/15 07:10:46;;;;;;;88.03;45.95;;;12.30;99.90;;;;;;4926209;28;20061;-64
2022/10/15 07:13:11;;;;;;;85.68;45.55;;;12.30;99.90;;;;;;4922170;28;20078;-64
2022/10/15 07:15:37;;;;;;;88.03;45.42;;;12.30;99.90;;;;;;4947006;28;20046;-63
2022/10/15 07:18:03;;;;;;;85.72;45.17;;;12.30;99.90;;;;;;4923791;28;20516;-64
2022/10/15 07:20:30;;;;;;;89.38;44.35;;;12.30;99.90;;;;;;4946591;28;20035;-64
2022/10/15 07:23:00;;;;;;;82.45;44.25;;;12.30;99.90;;;;;;4938697;28;20057;-63
2022/10/15 07:25:27;;;;;;;92.32;46.70;;;12.40;99.90;;;;;;4922396;28;20051;-64
2022/10/15 07:27:54;;;;;;;87.72;45.17;;;12.40;99.90;;;;;;4943982;28;20039;-64
2022/10/15 07:30:21;;;;;;;84.63;45.85;;;12.40;99.90;;;;;;4943347;28;20043;-63
2022/10/15 07:32:46;;;;;;;97.38;47.60;;;12.40;99.90;;;;;;4948329;28;20453;-64
2022/10/15 07:35:13;;;;;;;93.97;47.13;;;12.40;99.90;;;;;;4932288;28;20046;-64
2022/10/15 07:37:39;;;;;;;95.32;46.70;;;12.40;99.90;;;;;;4934164;28;20047;-64
2022/10/15 07:40:06;;;;;;;95.30;47.83;;;12.40;99.90;;;;;;4949554;28;20422;-64
2022/10/15 07:42:31;;;;;;;93.97;47.38;;;12.40;99.90;;;;;;4933779;28;20043;-64
2022/10/15 07:44:58;;;;;;;91.05;46.35;;;12.50;99.90;;;;;;4938128;28;20054;-64
2022/10/15 07:47:24;;;;;;;92.95;47.15;;;12.50;99.90;;;;;;4936636;28;20051;-64
2022/10/15 07:49:49;;;;;;;97.43;47.38;;;12.50;99.90;;;;;;4942246;28;20137;-64
2022/10/15 07:52:15;;;;;;;93.10;48.63;;;12.50;99.90;;;;;;4950759;28;20055;-64
2022/10/15 07:54:41;;;;;;;89.15;45.75;;;12.60;99.90;;;;;;4930792;28;20082;-64
2022/10/15 07:57:07;;;;;;;88.38;46.28;;;12.70;99.90;;;;;;4939909;28;20116;-65
2022/10/15 07:59:34;;;;;;;91.25;47.58;;;12.70;99.90;;;;;;4935278;28;20043;-64
2022/10/15 08:02:00;;;;;;;91.13;46.25;;;12.80;99.90;;;;;;4933895;28;20536;-64
2022/10/15 08:04:26;;;;;;;94.32;47.42;;;12.80;99.90;;;;;;4942109;28;20209;-64
2022/10/15 08:06:52;;;;;;;91.43;46.58;;;12.90;99.90;;;;;;4951159;28;20711;-63
2022/10/15 08:09:18;;;;;;;88.85;46.35;;;12.90;99.90;;;;;;4932387;28;20409;-64
2022/10/15 08:11:43;;;;;;;82.70;46.10;;;13.00;99.90;;;;;;4940513;28;20150;-64
2022/10/15 08:14:09;;;;;;;83.35;45.28;;;13.00;99.90;;;;;;4934120;28;20576;-64
2022/10/15 08:16:35;;;;;;;91.88;44.63;;;13.10;99.90;;;;;;4952681;28;20742;-64
2022/10/15 08:19:01;;;;;;;81.47;44.58;;;13.10;99.90;;;;;;4948528;28;20130;-64
2022/10/15 08:21:27;;;;;;;79.47;44.65;;;13.20;99.90;;;;;;4932230;28;20051;-64
2022/10/15 08:23:53;;;;;;;77.78;43.25;;;13.20;99.90;;;;;;4933990;28;20047;-64
2022/10/15 08:26:18;;;;;;;85.40;46.30;;;13.20;99.90;;;;;;4950519;28;20138;-64
2022/10/15 08:28:44;;;;;;;78.20;44.28;;;13.20;99.90;;;;;;4937555;28;20055;-64
2022/10/15 08:31:10;;;;;;;83.22;44.42;;;13.20;99.90;;;;;;4911313;28;20062;-64
2022/10/15 08:33:36;;;;;;;77.43;44.38;;;13.30;99.90;;;;;;4954271;28;20047;-64
2022/10/15 08:36:06;;;;;;;76.22;43.47;;;13.30;99.90;;;;;;4945314;28;20525;-63
2022/10/15 08:38:33;;;;;;;82.30;44.55;;;13.30;99.90;;;;;;4950071;28;20107;-64
2022/10/15 08:41:05;;;;;;;79.00;43.78;;;13.30;99.90;;;;;;4919761;28;20097;-64
2022/10/15 08:43:40;;;;;;;76.53;42.50;;;13.30;99.90;;;;;;4937170;28;20047;-64
2022/10/15 08:46:15;;;;;;;74.72;41.83;;;13.40;99.90;;;;;;4936709;28;20082;-64
2022/10/15 08:48:46;;;;;;;77.43;42.08;;;13.40;99.90;;;;;;4943423;28;20046;-64
2022/10/15 08:51:13;;;;;;;74.60;41.83;;;13.50;99.90;;;;;;4954014;28;20051;-64
2022/10/15 08:53:44;;;;;;;73.82;41.10;;;13.40;99.90;;;;;;4943135;28;20046;-64
2022/10/15 08:56:20;;;;;;;75.80;40.80;;;13.50;99.90;;;;;;4935780;28;21115;-64
2022/10/15 08:58:58;;;;;;;80.38;42.78;;;13.50;99.90;;;;;;4952362;28;21400;-64
2022/10/15 09:02:20;;;;;;;76.57;41.67;;;13.50;99.90;;;;;;4936496;28;20099;-64
2022/10/15 09:04:54;;;;;;;80.78;42.53;;;13.50;99.90;;;;;;4843669;29;20062;-64
2022/10/15 09:07:42;;;;;;;73.60;43.25;;;13.50;99.90;;;;;;4951260;28;20063;-64
2022/10/15 09:10:31;;;;;;;86.45;44.58;;;13.60;99.90;;;;;;4935762;28;20497;-64
2022/10/15 09:13:07;;;;;;;76.07;42.40;;;13.60;99.90;;;;;;4954107;28;20047;-64
2022/10/15 09:15:40;;;;;;;73.25;42.40;;;13.60;99.90;;;;;;4940120;28;20421;-64
2022/10/15 09:18:16;;;;;;;78.80;44.10;;;13.60;99.90;;;;;;4937213;28;20109;-64
2022/10/15 09:20:42;;;;;;;84.72;45.50;;;13.70;99.90;;;;;;4921013;28;20790;-64
2022/10/15 09:23:20;;;;;;;81.13;45.05;;;13.80;99.90;;;;;;4940785;28;21283;-64
2022/10/15 09:26:11;;;;;;;77.68;45.20;;;13.70;99.90;;;;;;4911770;28;20051;-64
2022/10/15 09:29:11;;;;;;;73.53;42.50;;;13.80;99.90;;;;;;4945046;28;20039;-64
2022/10/15 09:31:49;;;;;;;72.00;41.95;;;13.80;99.90;;;;;;4936499;28;20127;-65
2022/10/15 09:34:24;;;;;;;68.75;41.25;;;13.80;99.90;;;;;;4952183;28;20039;-64
2022/10/15 09:36:55;;;;;;;62.25;39.60;;;13.80;99.90;;;;;;4942350;28;20130;-64
2022/10/15 09:39:39;;;;;;;62.30;38.35;;;13.80;99.90;;;;;;4931431;28;20039;-64
2022/10/15 09:42:29;;;;;;;57.40;35.55;;;13.80;99.90;;;;;;4952108;28;20051;-64
2022/10/15 09:45:00;;;;;;;63.72;38.63;;;13.80;99.90;;;;;;4934801;28;20051;-64
2022/10/15 09:47:29;;;;;;;65.40;38.60;;;13.80;99.90;;;;;;4952207;28;20063;-64
2022/10/15 09:49:55;;;;;;;62.13;37.05;;;13.80;99.90;;;;;;4944967;28;20437;-64
2022/10/15 09:52:36;;;;;;;59.35;35.17;;;13.80;99.90;;;;;;4935345;28;20111;-64
2022/10/15 09:55:24;;;;;;;49.50;30.98;;;13.80;99.90;;;;;;4952891;28;20905;-64
2022/10/15 09:57:54;;;;;;;54.97;33.30;;;13.70;99.90;;;;;;4937505;28;20047;-64
2022/10/15 10:00:20;;;;;;;49.75;31.08;;;13.70;99.90;;;;;;4934122;28;20486;-64
2022/10/15 10:03:14;;;;;;;52.70;31.52;;;13.70;99.90;;;;;;4949085;28;20055;-64
2022/10/15 10:05:40;;;;;;;47.17;29.27;;;13.70;99.90;;;;;;4934713;28;20094;-64
2022/10/15 10:08:23;;;;;;;51.70;30.80;;;13.70;99.90;;;;;;4945346;28;20501;-64
2022/10/15 10:11:04;;;;;;;56.35;31.02;;;13.60;99.90;;;;;;4942643;28;20047;-64
2022/10/15 10:13:56;;;;;;;54.72;30.75;;;13.60;99.90;;;;;;4941990;28;20047;-64
2022/10/15 10:16:23;;;;;;;56.72;31.92;;;13.60;99.90;;;;;;4940949;28;20051;-64
2022/10/15 10:19:12;;;;;;;55.45;30.85;;;13.60;99.90;;;;;;4913603;28;20075;-64
2022/10/15 10:21:41;;;;;;;51.97;29.92;;;13.60;99.90;;;;;;4951620;28;20043;-64
2022/10/15 10:24:36;;;;;;;53.38;29.85;;;13.60;99.90;;;;;;4934408;28;20047;-64
2022/10/15 10:27:03;;;;;;;59.88;32.45;;;13.60;99.90;;;;;;4927599;28;20066;-64
2022/10/15 10:29:35;;;;;;;55.58;30.83;;;13.60;99.90;;;;;;4936274;28;20047;-64
2022/10/15 10:32:17;;;;;;;55.10;31.08;;;13.60;99.90;;;;;;4944199;28;20406;-64
2022/10/15 10:34:43;;;;;;;57.20;31.73;;;13.60;99.90;;;;;;4933893;28;20050;-64
2022/10/15 10:37:10;;;;;;;56.72;31.42;;;13.60;99.90;;;;;;4934583;28;20054;-64
2022/10/15 10:39:36;;;;;;;53.72;30.90;;;13.70;99.90;;;;;;4933471;28;20524;-64
2022/10/15 10:42:18;;;;;;;49.40;28.98;;;13.70;99.90;;;;;;4934852;28;20050;-64
2022/10/15 10:44:45;;;;;;;48.45;27.63;;;13.80;99.90;;;;;;4942623;28;20051;-64
2022/10/15 10:47:20;;;;;;;48.00;27.75;;;13.80;99.90;;;;;;4936322;28;20101;-64
2022/10/15 10:49:45;;;;;;;45.83;25.90;;;13.90;99.90;;;;;;4950366;28;21590;-64
2022/10/15 10:52:39;;;;;;;40.90;23.70;;;13.90;99.90;;;;;;4941232;28;20126;-64
2022/10/15 10:55:23;;;;;;;40.42;23.75;;;13.90;99.90;;;;;;4937452;28;20047;-64
2022/10/15 10:58:01;;;;;;;37.38;21.90;;;14.00;99.90;;;;;;4940840;28;20081;-64
2022/10/15 11:00:32;;;;;;;32.42;21.25;;;14.00;99.90;;;;;;4933455;28;20054;-64
2022/10/15 11:02:58;;;;;;;36.40;21.73;;;14.10;99.90;;;;;;4928026;28;20047;-64
2022/10/15 11:05:27;;;;;;;37.70;20.15;;;14.10;99.90;;;;;;4915748;28;20125;-64
2022/10/15 11:08:08;;;;;;;27.83;18.42;;;14.20;99.90;;;;;;4935199;28;20058;-64
2022/10/15 11:10:45;;;;;;;30.67;18.95;;;14.20;99.90;;;;;;4938767;28;20050;-64
2022/10/15 11:13:37;;;;;;;28.02;18.88;;;14.20;99.90;;;;;;4945750;28;20078;-64
2022/10/15 11:16:06;;;;;;;25.65;17.50;;;14.20;99.90;;;;;;4949939;28;20504;-64
2022/10/15 11:18:47;;;;;;;26.08;17.20;;;14.20;99.90;;;;;;4933098;28;20066;-64
2022/10/15 11:21:19;;;;;;;24.42;16.45;;;14.20;99.90;;;;;;4929862;28;20804;-64
2022/10/15 11:24:02;;;;;;;26.47;16.20;;;14.30;99.90;;;;;;4950186;28;20049;-64
2022/10/15 11:26:46;;;;;;;;;;;14.30;99.90;;;;;;4951209;28;20046;-64
2022/10/15 11:29:18;;;;;;;22.45;15.90;;;14.40;99.90;;;;;;4915921;28;19919;-64
2022/10/15 11:31:56;;;;;;;26.48;16.05;;;14.40;99.90;;;;;;4919032;28;20081;-64
2022/10/15 11:34:49;;;;;;;24.77;15.43;;;14.50;99.90;;;;;;4928871;28;20129;-64
2022/10/15 11:37:27;;;;;;;23.30;15.13;;;14.60;99.90;;;;;;4908593;28;20039;-64
2022/10/15 11:40:11;;;;;;;21.50;14.60;;;14.70;99.90;;;;;;4948595;28;20934;-64
2022/10/15 11:42:56;;;;;;;22.02;14.35;;;14.70;99.90;;;;;;4934764;28;20397;-64
2022/10/15 11:46:04;;;;;;;20.60;14.55;;;14.70;99.90;;;;;;4935702;28;20058;-64
2022/10/15 11:48:38;;;;;;;20.63;14.65;;;14.70;99.90;;;;;;4862029;29;20853;-64
2022/10/15 11:51:16;;;;;;;20.83;14.85;;;14.80;99.90;;;;;;4860241;29;20049;-64
2022/10/15 11:53:52;;;;;;;22.15;15.50;;;14.80;99.90;;;;;;4892995;28;20054;-64
2022/10/15 11:56:25;;;;;;;21.25;15.63;;;14.90;99.90;;;;;;4933059;28;20501;-64
2022/10/15 11:59:09;;;;;;;;;;;14.90;99.90;;;;;;4936911;28;20501;-64
2022/10/15 12:02:15;;;;;;;23.13;15.73;;;14.90;99.90;;;;;;4949957;28;19965;-64
2022/10/15 12:04:50;;;;;;;20.70;15.27;;;14.90;99.90;;;;;;4902397;28;20106;-64
2022/10/15 12:07:26;;;;;;;24.20;16.13;;;14.90;99.90;;;;;;4915813;29;20063;-64
2022/10/15 12:09:58;;;;;;;21.40;15.95;;;14.90;99.90;;;;;;4938485;28;20048;-64
2022/10/15 12:12:38;;;;;;;23.90;16.73;;;14.90;99.90;;;;;;4940251;28;20051;-64
2022/10/15 12:15:22;;;;;;;24.98;16.63;;;15.00;99.90;;;;;;4940189;28;20051;-64
2022/10/15 12:18:33;;;;;;;21.00;14.98;;;15.00;99.90;;;;;;4942609;29;20637;-64
2022/10/15 12:20:59;;;;;;;21.38;15.82;;;15.00;99.90;;;;;;4924785;28;20048;-64
2022/10/15 12:23:45;;;;;;;22.25;16.02;;;15.00;99.90;;;;;;4950290;28;20056;-64
2022/10/15 12:26:23;;;;;;;22.40;16.05;;;15.10;99.90;;;;;;4929401;28;20142;-64
2022/10/15 12:28:51;;;;;;;24.65;16.33;;;15.10;99.90;;;;;;4927843;28;20067;-64
2022/10/15 12:31:19;;;;;;;21.67;15.90;;;15.10;99.90;;;;;;4931948;28;20046;-64
2022/10/15 12:33:52;;;;;;;23.05;15.98;;;15.00;99.90;;;;;;4934805;29;20086;-64
2022/10/15 12:36:18;;;;;;;20.95;15.77;;;15.10;99.90;;;;;;4929112;28;20062;-64
2022/10/15 12:39:06;;;;;;;23.38;15.68;;;15.10;99.90;;;;;;4928621;28;20046;-64
2022/10/15 12:41:37;;;;;;;19.58;14.68;;;15.10;99.90;;;;;;4934602;28;20118;-64
2022/10/15 12:44:21;;;;;;;22.25;15.55;;;15.10;99.90;;;;;;4931370;28;20051;-64
2022/10/15 12:46:47;;;;;;;20.00;14.23;;;15.10;99.90;;;;;;4932028;28;20657;-64
2022/10/15 12:49:31;;;;;;;25.25;15.48;;;15.10;99.90;;;;;;4930873;28;20144;-64